sensor_id;sensor_type;location;lat;lon;timestamp;temperature;humidity
22130;DHT22;11231;50.746;4.272;2024-03-06T00:01:04;9.20;99.90
22130;DHT22;11231;50.746;4.272;2024-03-06T00:03:30;9.20;99.90
22130;DHT22;11231;50.746;4.272;2024-03-06T00:05:56;9.30;99.90
22130;DHT22;11231;50.746;4.272;2024-03-06T00:08:21;9.40;99.90
22130;DHT22;11231;50.746;4.272;2024-03-06T00:10:47;9.40;99.90
22130;DHT22;11231;50.746;4.272;2024-03-06T00:13:13;9.50;99.90
22130;DHT22;11231;50.746;4.272;2024-03-06T00:15:39;9.50;99.90
22130;DHT22;11231;50.746;4.272;2024-03-06T00:18:05;9.50;99.90
22130;DHT22;11231;50.746;4.272;2024-03-06T00:20:31;9.50;99.90
22130;DHT22;11231;50.746;4.272;2024-03-06T00:22:57;9.30;99.90
22130;DHT22;11231;50.746;4.272;2024-03-06T00:25:25;9.30;99.90
22130;DHT22;11231;50.746;4.272;2024-03-06T00:27:50;9.20;99.90
22130;DHT22;11231;50.746;4.272;2024-03-06T00:30:16;9.10;99.90
22130;DHT22;11231;50.746;4.272;2024-03-06T00:32:42;8.90;99.90
22130;DHT22;11231;50.746;4.272;2024-03-06T00:35:11;8.60;99.90
22130;DHT22;11231;50.746;4.272;2024-03-06T00:37:37;8.50;99.90
22130;DHT22;11231;50.746;4.272;2024-03-06T00:40:03;8.50;99.90
22130;DHT22;11231;50.746;4.272;2024-03-06T00:42:29;8.30;99.90
22130;DHT22;11231;50.746;4.272;2024-03-06T00:44:55;8.20;99.90
22130;DHT22;11231;50.746;4.272;2024-03-06T00:47:21;8.00;99.90
22130;DHT22;11231;50.746;4.272;2024-03-06T00:49:47;7.90;99.90
22130;DHT22;11231;50.746;4.272;2024-03-06T00:52:12;7.80;99.90
22130;DHT22;11231;50.746;4.272;2024-03-06T00:54:38;7.70;99.90
22130;DHT22;11231;50.746;4.272;2024-03-06T00:57:04;7.60;99.90
22130;DHT22;11231;50.746;4.272;2024-03-06T00:59:30;7.50;99.90
22130;DHT22;11231;50.746;4.272;2024-03-06T01:01:55;7.40;99.90
22130;DHT22;11231;50.746;4.272;2024-03-06T01:04:22;7.50;99.90
22130;DHT22;11231;50.746;4.272;2024-03-06T01:06:48;7.40;99.90
22130;DHT22;11231;50.746;4.272;2024-03-06T01:09:14;7.40;99.90
22130;DHT22;11231;50.746;4.272;2024-03-06T01:11:40;7.30;99.90
22130;DHT22;11231;50.746;4.272;2024-03-06T01:14:05;7.30;99.90
22130;DHT22;11231;50.746;4.272;2024-03-06T01:16:31;7.30;99.90
22130;DHT22;11231;50.746;4.272;2024-03-06T01:18:57;7.10;99.90
22130;DHT22;11231;50.746;4.272;2024-03-06T01:21:22;7.00;99.90
22130;DHT22;11231;50.746;4.272;2024-03-06T01:23:48;7.00;99.90
22130;DHT22;11231;50.746;4.272;2024-03-06T01:26:14;6.90;99.90
22130;DHT22;11231;50.746;4.272;2024-03-06T01:28:39;6.80;99.90
22130;DHT22;11231;50.746;4.272;2024-03-06T01:31:05;6.60;99.90
22130;DHT22;11231;50.746;4.272;2024-03-06T01:33:32;6.70;99.90
22130;DHT22;11231;50.746;4.272;2024-03-06T01:35:57;6.60;99.90
22130;DHT22;11231;50.746;4.272;2024-03-06T01:38:23;6.60;99.90
22130;DHT22;11231;50.746;4.272;2024-03-06T01:40:49;6.60;99.90
22130;DHT22;11231;50.746;4.272;2024-03-06T01:43:22;6.50;99.90
22130;DHT22;11231;50.746;4.272;2024-03-06T01:45:49;6.50;99.90
22130;DHT22;11231;50.746;4.272;2024-03-06T01:48:18;6.40;99.90
22130;DHT22;11231;50.746;4.272;2024-03-06T01:50:45;6.40;99.90
22130;DHT22;11231;50.746;4.272;2024-03-06T01:53:13;6.30;99.90
22130;DHT22;11231;50.746;4.272;2024-03-06T01:55:40;6.20;99.90
22130;DHT22;11231;50.746;4.272;2024-03-06T01:58:06;6.20;99.90
22130;DHT22;11231;50.746;4.272;2024-03-06T02:00:32;6.20;99.90
22130;DHT22;11231;50.746;4.272;2024-03-06T02:03:00;6.20;99.90
22130;DHT22;11231;50.746;4.272;2024-03-06T02:05:28;6.20;99.90
22130;DHT22;11231;50.746;4.272;2024-03-06T02:07:53;6.10;99.90
22130;DHT22;11231;50.746;4.272;2024-03-06T02:10:19;6.10;99.90
22130;DHT22;11231;50.746;4.272;2024-03-06T02:12:45;6.10;99.90
22130;DHT22;11231;50.746;4.272;2024-03-06T02:15:11;6.00;99.90
22130;DHT22;11231;50.746;4.272;2024-03-06T02:17:38;6.00;99.90
22130;DHT22;11231;50.746;4.272;2024-03-06T02:20:04;5.90;99.90
22130;DHT22;11231;50.746;4.272;2024-03-06T02:22:32;6.00;99.90
22130;DHT22;11231;50.746;4.272;2024-03-06T02:24:58;6.10;99.90
22130;DHT22;11231;50.746;4.272;2024-03-06T02:27:24;6.10;99.90
22130;DHT22;11231;50.746;4.272;2024-03-06T02:29:49;6.10;99.90
22130;DHT22;11231;50.746;4.272;2024-03-06T02:32:15;6.20;99.90
22130;DHT22;11231;50.746;4.272;2024-03-06T02:34:43;6.20;99.90
22130;DHT22;11231;50.746;4.272;2024-03-06T02:37:09;6.30;99.90
22130;DHT22;11231;50.746;4.272;2024-03-06T02:39:35;6.30;99.90
22130;DHT22;11231;50.746;4.272;2024-03-06T02:42:01;6.30;99.90
22130;DHT22;11231;50.746;4.272;2024-03-06T02:44:26;6.30;99.90
22130;DHT22;11231;50.746;4.272;2024-03-06T02:46:52;6.20;99.90
22130;DHT22;11231;50.746;4.272;2024-03-06T02:49:18;6.10;99.90
22130;DHT22;11231;50.746;4.272;2024-03-06T02:51:44;6.10;99.90
22130;DHT22;11231;50.746;4.272;2024-03-06T02:54:10;6.10;99.90
22130;DHT22;11231;50.746;4.272;2024-03-06T02:56:36;6.10;99.90
22130;DHT22;11231;50.746;4.272;2024-03-06T02:59:02;6.10;99.90
22130;DHT22;11231;50.746;4.272;2024-03-06T03:01:29;6.10;99.90
22130;DHT22;11231;50.746;4.272;2024-03-06T03:03:55;6.00;99.90
22130;DHT22;11231;50.746;4.272;2024-03-06T03:06:21;5.90;99.90
22130;DHT22;11231;50.746;4.272;2024-03-06T03:08:49;5.90;99.90
22130;DHT22;11231;50.746;4.272;2024-03-06T03:11:15;5.90;99.90
22130;DHT22;11231;50.746;4.272;2024-03-06T03:13:41;5.90;99.90
22130;DHT22;11231;50.746;4.272;2024-03-06T03:16:07;5.90;99.90
22130;DHT22;11231;50.746;4.272;2024-03-06T03:18:33;5.90;99.90
22130;DHT22;11231;50.746;4.272;2024-03-06T03:20:58;6.00;99.90
22130;DHT22;11231;50.746;4.272;2024-03-06T03:23:24;6.00;99.90
22130;DHT22;11231;50.746;4.272;2024-03-06T03:25:50;6.00;99.90
22130;DHT22;11231;50.746;4.272;2024-03-06T03:28:15;5.90;99.90
22130;DHT22;11231;50.746;4.272;2024-03-06T03:30:44;5.90;99.90
22130;DHT22;11231;50.746;4.272;2024-03-06T03:33:10;5.90;99.90
22130;DHT22;11231;50.746;4.272;2024-03-06T03:35:35;5.80;99.90
22130;DHT22;11231;50.746;4.272;2024-03-06T03:38:01;5.80;99.90
22130;DHT22;11231;50.746;4.272;2024-03-06T03:40:27;5.80;99.90
22130;DHT22;11231;50.746;4.272;2024-03-06T03:42:52;5.70;99.90
22130;DHT22;11231;50.746;4.272;2024-03-06T03:45:18;5.70;99.90
22130;DHT22;11231;50.746;4.272;2024-03-06T03:47:45;5.80;99.90
22130;DHT22;11231;50.746;4.272;2024-03-06T03:50:11;5.70;99.90
22130;DHT22;11231;50.746;4.272;2024-03-06T03:52:37;5.60;99.90
22130;DHT22;11231;50.746;4.272;2024-03-06T03:55:07;5.50;99.90
22130;DHT22;11231;50.746;4.272;2024-03-06T03:57:33;5.50;99.90
22130;DHT22;11231;50.746;4.272;2024-03-06T03:59:59;5.40;99.90
22130;DHT22;11231;50.746;4.272;2024-03-06T04:02:25;5.50;99.90
22130;DHT22;11231;50.746;4.272;2024-03-06T04:04:50;5.50;99.90
22130;DHT22;11231;50.746;4.272;2024-03-06T04:07:16;5.50;99.90
22130;DHT22;11231;50.746;4.272;2024-03-06T04:09:44;5.50;99.90
22130;DHT22;11231;50.746;4.272;2024-03-06T04:12:10;5.50;99.90
22130;DHT22;11231;50.746;4.272;2024-03-06T04:14:35;5.50;99.90
22130;DHT22;11231;50.746;4.272;2024-03-06T04:17:01;5.50;99.90
22130;DHT22;11231;50.746;4.272;2024-03-06T04:19:29;5.40;99.90
22130;DHT22;11231;50.746;4.272;2024-03-06T04:21:56;5.30;99.90
22130;DHT22;11231;50.746;4.272;2024-03-06T04:24:21;5.40;99.90
22130;DHT22;11231;50.746;4.272;2024-03-06T04:26:47;5.40;99.90
22130;DHT22;11231;50.746;4.272;2024-03-06T04:29:13;5.20;99.90
22130;DHT22;11231;50.746;4.272;2024-03-06T04:31:38;5.10;99.90
22130;DHT22;11231;50.746;4.272;2024-03-06T04:34:05;5.20;99.90
22130;DHT22;11231;50.746;4.272;2024-03-06T04:36:30;5.20;99.90
22130;DHT22;11231;50.746;4.272;2024-03-06T04:38:56;5.10;99.90
22130;DHT22;11231;50.746;4.272;2024-03-06T04:41:22;5.10;99.90
22130;DHT22;11231;50.746;4.272;2024-03-06T04:43:49;5.10;99.90
22130;DHT22;11231;50.746;4.272;2024-03-06T04:46:16;5.00;99.90
22130;DHT22;11231;50.746;4.272;2024-03-06T04:48:42;5.00;99.90
22130;DHT22;11231;50.746;4.272;2024-03-06T04:51:07;5.00;99.90
22130;DHT22;11231;50.746;4.272;2024-03-06T04:53:35;5.10;99.90
22130;DHT22;11231;50.746;4.272;2024-03-06T04:56:01;5.20;99.90
22130;DHT22;11231;50.746;4.272;2024-03-06T04:58:27;5.30;99.90
22130;DHT22;11231;50.746;4.272;2024-03-06T05:00:53;5.40;99.90
22130;DHT22;11231;50.746;4.272;2024-03-06T05:03:18;5.30;99.90
22130;DHT22;11231;50.746;4.272;2024-03-06T05:05:44;5.30;99.90
22130;DHT22;11231;50.746;4.272;2024-03-06T05:08:10;5.30;99.90
22130;DHT22;11231;50.746;4.272;2024-03-06T05:10:36;5.30;99.90
22130;DHT22;11231;50.746;4.272;2024-03-06T05:13:01;5.40;99.90
22130;DHT22;11231;50.746;4.272;2024-03-06T05:15:27;5.30;99.90
22130;DHT22;11231;50.746;4.272;2024-03-06T05:17:53;5.30;99.90
22130;DHT22;11231;50.746;4.272;2024-03-06T05:20:21;5.30;99.90
22130;DHT22;11231;50.746;4.272;2024-03-06T05:22:47;5.30;99.90
22130;DHT22;11231;50.746;4.272;2024-03-06T05:25:12;5.30;99.90
22130;DHT22;11231;50.746;4.272;2024-03-06T05:27:38;5.30;99.90
22130;DHT22;11231;50.746;4.272;2024-03-06T05:30:05;5.40;99.90
22130;DHT22;11231;50.746;4.272;2024-03-06T05:32:31;5.40;99.90
22130;DHT22;11231;50.746;4.272;2024-03-06T05:34:56;5.30;99.90
22130;DHT22;11231;50.746;4.272;2024-03-06T05:37:23;5.30;99.90
22130;DHT22;11231;50.746;4.272;2024-03-06T05:39:49;5.30;99.90
22130;DHT22;11231;50.746;4.272;2024-03-06T05:42:14;5.30;99.90
22130;DHT22;11231;50.746;4.272;2024-03-06T05:44:40;5.20;99.90
22130;DHT22;11231;50.746;4.272;2024-03-06T05:47:06;5.10;99.90
22130;DHT22;11231;50.746;4.272;2024-03-06T05:49:32;5.10;99.90
22130;DHT22;11231;50.746;4.272;2024-03-06T05:51:58;5.10;99.90
22130;DHT22;11231;50.746;4.272;2024-03-06T05:54:24;5.10;99.90
22130;DHT22;11231;50.746;4.272;2024-03-06T05:56:50;5.00;99.90
22130;DHT22;11231;50.746;4.272;2024-03-06T05:59:19;4.80;99.90
22130;DHT22;11231;50.746;4.272;2024-03-06T06:01:46;4.90;99.90
22130;DHT22;11231;50.746;4.272;2024-03-06T06:04:13;4.80;99.90
22130;DHT22;11231;50.746;4.272;2024-03-06T06:06:39;4.90;99.90
22130;DHT22;11231;50.746;4.272;2024-03-06T06:09:05;5.10;99.90
22130;DHT22;11231;50.746;4.272;2024-03-06T06:11:31;5.20;99.90
22130;DHT22;11231;50.746;4.272;2024-03-06T06:13:59;5.20;99.90
22130;DHT22;11231;50.746;4.272;2024-03-06T06:16:24;5.20;99.90
22130;DHT22;11231;50.746;4.272;2024-03-06T06:18:50;5.20;99.90
22130;DHT22;11231;50.746;4.272;2024-03-06T06:21:16;5.10;99.90
22130;DHT22;11231;50.746;4.272;2024-03-06T06:23:42;5.00;99.90
22130;DHT22;11231;50.746;4.272;2024-03-06T06:26:08;5.00;99.90
22130;DHT22;11231;50.746;4.272;2024-03-06T06:28:36;5.00;99.90
22130;DHT22;11231;50.746;4.272;2024-03-06T06:31:03;5.00;99.90
22130;DHT22;11231;50.746;4.272;2024-03-06T06:33:30;5.00;99.90
22130;DHT22;11231;50.746;4.272;2024-03-06T06:35:55;5.00;99.90
22130;DHT22;11231;50.746;4.272;2024-03-06T06:38:21;5.10;99.90
22130;DHT22;11231;50.746;4.272;2024-03-06T06:40:47;5.10;99.90
22130;DHT22;11231;50.746;4.272;2024-03-06T06:43:13;4.80;99.90
22130;DHT22;11231;50.746;4.272;2024-03-06T06:45:40;4.80;99.90
22130;DHT22;11231;50.746;4.272;2024-03-06T06:48:06;4.70;99.90
22130;DHT22;11231;50.746;4.272;2024-03-06T06:50:32;4.60;99.90
22130;DHT22;11231;50.746;4.272;2024-03-06T06:52:59;4.70;99.90
22130;DHT22;11231;50.746;4.272;2024-03-06T06:55:25;4.70;99.90
22130;DHT22;11231;50.746;4.272;2024-03-06T06:57:51;4.90;99.90
22130;DHT22;11231;50.746;4.272;2024-03-06T07:00:17;5.10;99.90
22130;DHT22;11231;50.746;4.272;2024-03-06T07:02:44;5.30;99.90
22130;DHT22;11231;50.746;4.272;2024-03-06T07:05:11;5.40;99.90
22130;DHT22;11231;50.746;4.272;2024-03-06T07:07:38;5.40;99.90
22130;DHT22;11231;50.746;4.272;2024-03-06T07:10:04;5.30;99.90
22130;DHT22;11231;50.746;4.272;2024-03-06T07:12:31;5.20;99.90
22130;DHT22;11231;50.746;4.272;2024-03-06T07:14:57;5.10;99.90
22130;DHT22;11231;50.746;4.272;2024-03-06T07:17:23;5.10;99.90
22130;DHT22;11231;50.746;4.272;2024-03-06T07:19:49;5.30;99.90
22130;DHT22;11231;50.746;4.272;2024-03-06T07:22:16;5.70;99.90
22130;DHT22;11231;50.746;4.272;2024-03-06T07:24:42;6.20;99.90
22130;DHT22;11231;50.746;4.272;2024-03-06T07:27:08;7.30;99.90
22130;DHT22;11231;50.746;4.272;2024-03-06T07:29:35;8.20;99.90
22130;DHT22;11231;50.746;4.272;2024-03-06T07:32:01;8.40;99.90
22130;DHT22;11231;50.746;4.272;2024-03-06T07:34:26;9.00;99.90
22130;DHT22;11231;50.746;4.272;2024-03-06T07:36:53;10.60;99.90
22130;DHT22;11231;50.746;4.272;2024-03-06T07:39:21;12.00;99.90
22130;DHT22;11231;50.746;4.272;2024-03-06T07:41:47;13.20;99.90
22130;DHT22;11231;50.746;4.272;2024-03-06T07:44:13;12.70;99.90
22130;DHT22;11231;50.746;4.272;2024-03-06T07:46:39;11.60;99.90
22130;DHT22;11231;50.746;4.272;2024-03-06T07:49:05;10.60;99.90
22130;DHT22;11231;50.746;4.272;2024-03-06T07:51:31;10.10;99.90
22130;DHT22;11231;50.746;4.272;2024-03-06T07:53:57;9.40;99.90
22130;DHT22;11231;50.746;4.272;2024-03-06T07:56:26;9.50;99.90
22130;DHT22;11231;50.746;4.272;2024-03-06T07:58:52;10.50;99.90
22130;DHT22;11231;50.746;4.272;2024-03-06T08:01:19;12.00;99.90
22130;DHT22;11231;50.746;4.272;2024-03-06T08:03:46;13.20;99.90
22130;DHT22;11231;50.746;4.272;2024-03-06T08:06:12;14.10;99.90
22130;DHT22;11231;50.746;4.272;2024-03-06T08:08:41;14.40;99.90
22130;DHT22;11231;50.746;4.272;2024-03-06T08:11:10;14.80;99.90
22130;DHT22;11231;50.746;4.272;2024-03-06T08:13:36;14.10;99.90
22130;DHT22;11231;50.746;4.272;2024-03-06T08:16:02;13.00;99.90
22130;DHT22;11231;50.746;4.272;2024-03-06T08:18:29;12.50;99.90
22130;DHT22;11231;50.746;4.272;2024-03-06T08:20:56;12.00;99.90
22130;DHT22;11231;50.746;4.272;2024-03-06T08:23:22;11.60;99.90
22130;DHT22;11231;50.746;4.272;2024-03-06T08:25:49;11.40;99.90
22130;DHT22;11231;50.746;4.272;2024-03-06T08:28:15;11.00;99.90
22130;DHT22;11231;50.746;4.272;2024-03-06T08:30:41;10.90;99.90
22130;DHT22;11231;50.746;4.272;2024-03-06T08:33:07;10.80;99.90
22130;DHT22;11231;50.746;4.272;2024-03-06T08:35:33;10.70;99.90
22130;DHT22;11231;50.746;4.272;2024-03-06T08:37:59;10.60;99.90
22130;DHT22;11231;50.746;4.272;2024-03-06T08:40:25;10.50;99.90
22130;DHT22;11231;50.746;4.272;2024-03-06T08:42:54;10.50;99.90
22130;DHT22;11231;50.746;4.272;2024-03-06T08:45:20;10.50;99.90
22130;DHT22;11231;50.746;4.272;2024-03-06T08:47:46;10.50;99.90
22130;DHT22;11231;50.746;4.272;2024-03-06T08:50:13;10.40;99.90
22130;DHT22;11231;50.746;4.272;2024-03-06T08:52:39;10.50;99.90
22130;DHT22;11231;50.746;4.272;2024-03-06T08:55:07;10.50;99.90
22130;DHT22;11231;50.746;4.272;2024-03-06T08:57:36;10.60;99.90
22130;DHT22;11231;50.746;4.272;2024-03-06T09:00:03;10.60;99.90
22130;DHT22;11231;50.746;4.272;2024-03-06T09:02:29;10.70;99.90
22130;DHT22;11231;50.746;4.272;2024-03-06T09:04:54;10.70;99.90
22130;DHT22;11231;50.746;4.272;2024-03-06T09:07:20;10.70;99.90
22130;DHT22;11231;50.746;4.272;2024-03-06T09:09:50;10.80;99.90
22130;DHT22;11231;50.746;4.272;2024-03-06T09:12:17;10.90;99.90
22130;DHT22;11231;50.746;4.272;2024-03-06T09:14:44;10.80;99.90
22130;DHT22;11231;50.746;4.272;2024-03-06T09:17:12;10.80;99.90
22130;DHT22;11231;50.746;4.272;2024-03-06T09:19:40;10.90;99.90
22130;DHT22;11231;50.746;4.272;2024-03-06T09:22:06;11.00;99.90
22130;DHT22;11231;50.746;4.272;2024-03-06T09:24:32;11.10;99.90
22130;DHT22;11231;50.746;4.272;2024-03-06T09:27:00;11.20;99.90
22130;DHT22;11231;50.746;4.272;2024-03-06T09:29:26;11.30;99.90
22130;DHT22;11231;50.746;4.272;2024-03-06T09:31:52;11.30;99.90
22130;DHT22;11231;50.746;4.272;2024-03-06T09:34:18;11.40;99.90
22130;DHT22;11231;50.746;4.272;2024-03-06T09:36:48;11.40;99.90
22130;DHT22;11231;50.746;4.272;2024-03-06T09:39:15;11.40;99.90
22130;DHT22;11231;50.746;4.272;2024-03-06T09:41:49;11.50;99.90
22130;DHT22;11231;50.746;4.272;2024-03-06T09:44:16;11.50;99.90
22130;DHT22;11231;50.746;4.272;2024-03-06T09:46:43;11.50;99.90
22130;DHT22;11231;50.746;4.272;2024-03-06T09:49:11;11.60;99.90
22130;DHT22;11231;50.746;4.272;2024-03-06T09:51:38;11.60;99.90
22130;DHT22;11231;50.746;4.272;2024-03-06T09:54:07;11.50;99.90
22130;DHT22;11231;50.746;4.272;2024-03-06T09:56:33;11.40;99.90
22130;DHT22;11231;50.746;4.272;2024-03-06T09:59:00;11.30;99.90
22130;DHT22;11231;50.746;4.272;2024-03-06T10:01:26;11.40;99.90
22130;DHT22;11231;50.746;4.272;2024-03-06T10:03:53;11.40;99.90
22130;DHT22;11231;50.746;4.272;2024-03-06T10:06:19;11.50;99.90
22130;DHT22;11231;50.746;4.272;2024-03-06T10:08:45;11.70;99.90
22130;DHT22;11231;50.746;4.272;2024-03-06T10:11:12;12.60;99.90
22130;DHT22;11231;50.746;4.272;2024-03-06T10:13:38;14.90;99.90
22130;DHT22;11231;50.746;4.272;2024-03-06T10:16:05;17.20;99.90
22130;DHT22;11231;50.746;4.272;2024-03-06T10:18:37;18.60;99.90
22130;DHT22;11231;50.746;4.272;2024-03-06T10:21:06;20.50;99.90
22130;DHT22;11231;50.746;4.272;2024-03-06T10:23:32;22.30;99.90
22130;DHT22;11231;50.746;4.272;2024-03-06T10:25:58;23.40;99.90
22130;DHT22;11231;50.746;4.272;2024-03-06T10:28:24;24.20;99.90
22130;DHT22;11231;50.746;4.272;2024-03-06T10:30:50;24.40;99.90
22130;DHT22;11231;50.746;4.272;2024-03-06T10:33:18;23.70;98.70
22130;DHT22;11231;50.746;4.272;2024-03-06T10:35:46;23.60;99.90
22130;DHT22;11231;50.746;4.272;2024-03-06T10:38:12;24.80;99.30
22130;DHT22;11231;50.746;4.272;2024-03-06T10:40:42;25.40;94.30
22130;DHT22;11231;50.746;4.272;2024-03-06T10:43:09;26.20;94.20
22130;DHT22;11231;50.746;4.272;2024-03-06T10:45:48;26.90;91.80
22130;DHT22;11231;50.746;4.272;2024-03-06T10:48:16;26.90;89.30
22130;DHT22;11231;50.746;4.272;2024-03-06T10:50:43;26.60;85.10
22130;DHT22;11231;50.746;4.272;2024-03-06T10:53:13;25.10;87.60
22130;DHT22;11231;50.746;4.272;2024-03-06T10:55:39;24.70;90.20
22130;DHT22;11231;50.746;4.272;2024-03-06T10:58:07;23.80;90.90
22130;DHT22;11231;50.746;4.272;2024-03-06T11:00:44;23.50;91.20
22130;DHT22;11231;50.746;4.272;2024-03-06T11:03:14;22.60;92.00
22130;DHT22;11231;50.746;4.272;2024-03-06T11:05:41;23.20;92.00
22130;DHT22;11231;50.746;4.272;2024-03-06T11:08:11;24.20;90.90
22130;DHT22;11231;50.746;4.272;2024-03-06T11:10:41;24.40;90.80
22130;DHT22;11231;50.746;4.272;2024-03-06T11:15:45;26.00;86.60
22130;DHT22;11231;50.746;4.272;2024-03-06T11:23:27;23.70;87.60
22130;DHT22;11231;50.746;4.272;2024-03-06T11:31:03;22.10;91.20
22130;DHT22;11231;50.746;4.272;2024-03-06T11:33:36;22.20;90.10
22130;DHT22;11231;50.746;4.272;2024-03-06T11:38:47;23.50;88.30
22130;DHT22;11231;50.746;4.272;2024-03-06T11:41:13;23.90;89.00
22130;DHT22;11231;50.746;4.272;2024-03-06T11:43:43;23.40;85.80
22130;DHT22;11231;50.746;4.272;2024-03-06T11:46:09;21.80;87.40
22130;DHT22;11231;50.746;4.272;2024-03-06T11:48:36;20.80;90.30
22130;DHT22;11231;50.746;4.272;2024-03-06T11:51:02;20.80;91.10
22130;DHT22;11231;50.746;4.272;2024-03-06T11:53:34;20.70;92.50
22130;DHT22;11231;50.746;4.272;2024-03-06T11:56:05;21.50;91.80
22130;DHT22;11231;50.746;4.272;2024-03-06T11:58:33;21.50;91.40
22130;DHT22;11231;50.746;4.272;2024-03-06T12:00:58;20.80;90.10
22130;DHT22;11231;50.746;4.272;2024-03-06T12:03:25;19.80;91.30
22130;DHT22;11231;50.746;4.272;2024-03-06T12:05:52;19.50;92.60
22130;DHT22;11231;50.746;4.272;2024-03-06T12:08:18;19.10;95.00
22130;DHT22;11231;50.746;4.272;2024-03-06T12:10:46;18.80;94.60
22130;DHT22;11231;50.746;4.272;2024-03-06T12:13:13;18.40;95.20
22130;DHT22;11231;50.746;4.272;2024-03-06T12:15:42;18.10;95.60
22130;DHT22;11231;50.746;4.272;2024-03-06T12:18:08;17.90;97.30
22130;DHT22;11231;50.746;4.272;2024-03-06T12:20:34;17.50;98.90
22130;DHT22;11231;50.746;4.272;2024-03-06T12:23:01;16.90;99.90
22130;DHT22;11231;50.746;4.272;2024-03-06T12:25:27;16.60;99.90
22130;DHT22;11231;50.746;4.272;2024-03-06T12:28:07;16.00;99.90
22130;DHT22;11231;50.746;4.272;2024-03-06T12:30:43;15.80;99.90
22130;DHT22;11231;50.746;4.272;2024-03-06T12:33:10;15.80;99.90
22130;DHT22;11231;50.746;4.272;2024-03-06T12:35:40;15.60;99.90
22130;DHT22;11231;50.746;4.272;2024-03-06T12:38:15;15.30;99.90
22130;DHT22;11231;50.746;4.272;2024-03-06T12:40:42;15.20;99.90
22130;DHT22;11231;50.746;4.272;2024-03-06T12:43:08;14.90;99.90
22130;DHT22;11231;50.746;4.272;2024-03-06T12:45:35;14.90;99.90
22130;DHT22;11231;50.746;4.272;2024-03-06T12:48:03;14.90;99.90
22130;DHT22;11231;50.746;4.272;2024-03-06T12:50:28;15.10;99.90
22130;DHT22;11231;50.746;4.272;2024-03-06T12:52:54;15.30;99.90
22130;DHT22;11231;50.746;4.272;2024-03-06T12:55:20;15.50;99.90
22130;DHT22;11231;50.746;4.272;2024-03-06T12:57:45;15.60;99.90
22130;DHT22;11231;50.746;4.272;2024-03-06T13:00:12;15.70;99.90
22130;DHT22;11231;50.746;4.272;2024-03-06T13:02:44;15.70;99.90
22130;DHT22;11231;50.746;4.272;2024-03-06T13:05:10;15.60;99.90
22130;DHT22;11231;50.746;4.272;2024-03-06T13:07:36;15.50;99.90
22130;DHT22;11231;50.746;4.272;2024-03-06T13:10:03;15.30;99.90
22130;DHT22;11231;50.746;4.272;2024-03-06T13:12:29;15.20;99.90
22130;DHT22;11231;50.746;4.272;2024-03-06T13:14:54;15.00;99.90
22130;DHT22;11231;50.746;4.272;2024-03-06T13:17:21;14.90;99.90
22130;DHT22;11231;50.746;4.272;2024-03-06T13:19:46;14.90;99.90
22130;DHT22;11231;50.746;4.272;2024-03-06T13:22:12;14.90;99.90
22130;DHT22;11231;50.746;4.272;2024-03-06T13:24:38;15.00;99.90
22130;DHT22;11231;50.746;4.272;2024-03-06T13:27:04;14.80;99.90
22130;DHT22;11231;50.746;4.272;2024-03-06T13:29:30;14.90;99.90
22130;DHT22;11231;50.746;4.272;2024-03-06T13:31:56;14.80;99.90
22130;DHT22;11231;50.746;4.272;2024-03-06T13:34:22;14.70;99.90
22130;DHT22;11231;50.746;4.272;2024-03-06T13:36:47;14.70;99.90
22130;DHT22;11231;50.746;4.272;2024-03-06T13:39:13;14.90;99.90
22130;DHT22;11231;50.746;4.272;2024-03-06T13:41:39;15.00;99.90
22130;DHT22;11231;50.746;4.272;2024-03-06T13:44:06;14.90;99.90
22130;DHT22;11231;50.746;4.272;2024-03-06T13:46:33;14.90;99.90
22130;DHT22;11231;50.746;4.272;2024-03-06T13:48:59;15.00;99.90
22130;DHT22;11231;50.746;4.272;2024-03-06T13:51:26;15.00;99.90
22130;DHT22;11231;50.746;4.272;2024-03-06T13:53:51;14.70;99.90
22130;DHT22;11231;50.746;4.272;2024-03-06T13:56:17;14.50;99.90
22130;DHT22;11231;50.746;4.272;2024-03-06T13:58:44;14.20;99.90
22130;DHT22;11231;50.746;4.272;2024-03-06T14:01:09;13.90;99.90
22130;DHT22;11231;50.746;4.272;2024-03-06T14:03:35;14.00;99.90
22130;DHT22;11231;50.746;4.272;2024-03-06T14:06:03;14.00;99.90
22130;DHT22;11231;50.746;4.272;2024-03-06T14:08:29;14.10;99.90
22130;DHT22;11231;50.746;4.272;2024-03-06T14:10:55;14.20;99.90
22130;DHT22;11231;50.746;4.272;2024-03-06T14:13:21;14.50;99.90
22130;DHT22;11231;50.746;4.272;2024-03-06T14:15:46;14.70;99.90
22130;DHT22;11231;50.746;4.272;2024-03-06T14:18:13;14.90;99.90
22130;DHT22;11231;50.746;4.272;2024-03-06T14:20:39;15.10;99.90
22130;DHT22;11231;50.746;4.272;2024-03-06T14:23:05;15.20;99.90
22130;DHT22;11231;50.746;4.272;2024-03-06T14:25:31;15.30;99.90
22130;DHT22;11231;50.746;4.272;2024-03-06T14:28:01;15.40;99.90
22130;DHT22;11231;50.746;4.272;2024-03-06T14:30:26;15.50;99.90
22130;DHT22;11231;50.746;4.272;2024-03-06T14:32:53;15.30;99.90
22130;DHT22;11231;50.746;4.272;2024-03-06T14:35:18;15.20;99.90
22130;DHT22;11231;50.746;4.272;2024-03-06T14:37:44;14.90;99.90
22130;DHT22;11231;50.746;4.272;2024-03-06T14:40:10;14.60;99.90
22130;DHT22;11231;50.746;4.272;2024-03-06T14:42:36;14.60;99.90
22130;DHT22;11231;50.746;4.272;2024-03-06T14:45:01;14.60;99.90
22130;DHT22;11231;50.746;4.272;2024-03-06T14:47:31;14.70;99.90
22130;DHT22;11231;50.746;4.272;2024-03-06T14:49:57;14.70;99.90
22130;DHT22;11231;50.746;4.272;2024-03-06T14:52:23;14.60;99.90
22130;DHT22;11231;50.746;4.272;2024-03-06T14:54:49;14.70;99.90
22130;DHT22;11231;50.746;4.272;2024-03-06T14:57:15;14.80;99.90
22130;DHT22;11231;50.746;4.272;2024-03-06T14:59:40;14.90;99.90
22130;DHT22;11231;50.746;4.272;2024-03-06T15:02:06;15.00;99.90
22130;DHT22;11231;50.746;4.272;2024-03-06T15:04:32;15.10;99.90
22130;DHT22;11231;50.746;4.272;2024-03-06T15:06:58;15.10;99.90
22130;DHT22;11231;50.746;4.272;2024-03-06T15:09:25;15.10;99.90
22130;DHT22;11231;50.746;4.272;2024-03-06T15:11:52;15.20;99.90
22130;DHT22;11231;50.746;4.272;2024-03-06T15:14:19;15.10;99.90
22130;DHT22;11231;50.746;4.272;2024-03-06T15:16:45;15.00;99.90
22130;DHT22;11231;50.746;4.272;2024-03-06T15:19:11;14.80;99.90
22130;DHT22;11231;50.746;4.272;2024-03-06T15:21:36;14.70;99.90
22130;DHT22;11231;50.746;4.272;2024-03-06T15:24:02;14.80;99.90
22130;DHT22;11231;50.746;4.272;2024-03-06T15:26:28;14.70;99.90
22130;DHT22;11231;50.746;4.272;2024-03-06T15:28:54;14.80;99.90
22130;DHT22;11231;50.746;4.272;2024-03-06T15:31:19;14.70;99.90
22130;DHT22;11231;50.746;4.272;2024-03-06T15:33:45;14.50;99.90
22130;DHT22;11231;50.746;4.272;2024-03-06T15:36:13;14.40;99.90
22130;DHT22;11231;50.746;4.272;2024-03-06T15:38:39;14.20;99.90
22130;DHT22;11231;50.746;4.272;2024-03-06T15:41:05;14.00;99.90
22130;DHT22;11231;50.746;4.272;2024-03-06T15:43:35;14.10;99.90
22130;DHT22;11231;50.746;4.272;2024-03-06T15:46:01;14.10;99.90
22130;DHT22;11231;50.746;4.272;2024-03-06T15:48:26;14.10;99.90